createdAt,value
2019-04-26T06:40:10.700Z,10.80
2019-04-26T07:06:35.205Z,10.82
2019-04-26T09:25:34.564Z,9.15
2019-04-26T09:28:08.420Z,8.78
2019-04-26T09:30:54.789Z,8.95
2019-04-26T09:33:26.196Z,9.05
2019-04-26T09:35:55.896Z,8.78
2019-04-26T09:38:25.529Z,8.18
2019-04-26T09:40:57.253Z,9.10
2019-04-26T09:43:28.761Z,9.53
2019-04-26T09:46:00.036Z,9.38
2019-04-26T09:48:31.450Z,9.38
2019-04-26T09:51:15.090Z,8.95
2019-04-26T09:53:47.706Z,9.43
2019-04-26T09:56:17.456Z,9.00
2019-04-26T09:58:47.597Z,8.83
2019-04-26T10:01:19.761Z,8.53
2019-04-26T10:03:49.218Z,10.03
2019-04-26T10:06:19.014Z,8.38
2019-04-26T10:08:49.151Z,9.40
2019-04-26T10:11:20.508Z,8.90
2019-04-26T10:13:51.769Z,9.45
2019-04-26T10:16:28.916Z,8.35
2019-04-26T10:19:00.331Z,7.67
2019-04-26T10:21:30.115Z,8.68
2019-04-26T10:23:59.959Z,7.87
2019-04-26T10:26:34.435Z,8.38
2019-04-26T10:29:07.364Z,8.13
2019-04-26T10:31:39.301Z,6.72
2019-04-26T10:34:11.821Z,6.50
2019-04-26T10:36:40.541Z,6.40
2019-04-26T10:39:14.612Z,5.30
2019-04-26T10:41:44.382Z,5.15
2019-04-26T10:44:15.956Z,5.67
2019-04-26T10:46:55.350Z,5.15
2019-04-26T10:49:47.717Z,4.80
2019-04-26T10:52:19.873Z,4.45
2019-04-26T10:54:53.263Z,5.20
2019-04-26T10:57:28.861Z,4.83
2019-04-26T11:00:03.740Z,4.60
2019-04-26T11:02:33.710Z,3.50
2019-04-26T11:05:03.916Z,4.62
2019-04-26T11:07:33.625Z,4.08
2019-04-26T11:10:06.886Z,5.00
2019-04-26T11:12:39.572Z,4.70
2019-04-26T11:15:09.370Z,4.78
2019-04-26T11:17:39.074Z,4.20
2019-04-26T11:20:10.532Z,3.92
2019-04-26T11:22:40.465Z,4.17
2019-04-26T11:25:11.718Z,4.05
2019-04-26T11:27:44.265Z,4.00
2019-04-26T11:30:20.598Z,4.58
2019-04-26T11:32:46.575Z,3.77
2019-04-26T11:35:36.570Z,3.47
2019-04-26T11:38:31.551Z,4.17
2019-04-26T11:41:06.374Z,3.60
2019-04-26T11:43:35.080Z,3.87
2019-04-26T11:46:05.158Z,4.20
2019-04-26T11:48:40.123Z,4.60
2019-04-26T11:51:09.957Z,4.90
2019-04-26T11:53:40.430Z,4.55
2019-04-26T11:56:13.335Z,4.97
2019-04-26T11:58:43.085Z,5.05
2019-04-26T12:01:14.679Z,5.12
2019-04-26T12:03:46.019Z,5.10
2019-04-26T12:06:17.364Z,4.90
2019-04-26T12:08:48.705Z,5.05
2019-04-26T12:11:25.892Z,5.53
2019-04-26T12:13:50.977Z,5.53
2019-04-26T12:16:20.915Z,5.47
2019-04-26T12:18:50.617Z,5.28
2019-04-26T12:21:20.383Z,4.85
2019-04-26T12:23:51.447Z,5.20
2019-04-26T12:26:22.997Z,5.45
2019-04-26T12:28:52.702Z,5.28
2019-04-26T12:31:22.426Z,5.50
2019-04-26T12:33:52.168Z,4.85
2019-04-26T12:36:21.910Z,4.35
2019-04-26T12:38:51.554Z,4.28
2019-04-26T12:41:39.209Z,4.45
2019-04-26T12:43:54.428Z,4.00
2019-04-26T12:46:43.864Z,4.97
2019-04-26T12:49:13.494Z,4.90
2019-04-26T12:51:47.277Z,4.17
2019-04-26T12:54:15.616Z,4.55
2019-04-26T12:56:45.466Z,3.70
2019-04-26T12:59:15.901Z,3.87
2019-04-26T13:01:46.678Z,3.65
2019-04-26T13:04:17.528Z,4.08
2019-04-26T13:06:55.140Z,3.17
2019-04-26T13:09:26.586Z,3.42
2019-04-26T13:12:00.766Z,3.47
2019-04-26T13:14:50.420Z,3.02
2019-04-26T13:17:24.425Z,3.42
2019-04-26T13:19:55.437Z,3.70
2019-04-26T13:22:25.225Z,3.52
2019-04-26T13:24:54.883Z,3.20
2019-04-26T13:27:24.516Z,2.52
2019-04-26T13:30:01.769Z,2.67
2019-04-26T13:32:25.726Z,2.58
2019-04-26T13:34:57.015Z,2.52
2019-04-26T13:37:26.739Z,2.80
2019-04-26T13:39:59.074Z,3.20
2019-04-26T13:42:28.786Z,3.58
2019-04-26T13:45:03.062Z,3.00
2019-04-26T13:47:34.439Z,2.50
2019-04-26T13:50:18.174Z,2.77
2019-04-26T13:52:47.792Z,3.42
2019-04-26T13:55:17.584Z,3.25
2019-04-26T13:57:47.242Z,3.50
2019-04-26T14:00:18.760Z,3.70
2019-04-26T14:02:48.595Z,4.20
2019-04-26T14:05:18.295Z,3.75
2019-04-26T14:07:47.930Z,4.45
2019-04-26T14:10:18.705Z,3.50
2019-04-26T14:12:49.994Z,3.77
2019-04-26T14:15:19.869Z,4.10
2019-04-26T14:17:49.583Z,3.20
2019-04-26T14:20:23.327Z,3.52
2019-04-26T14:23:04.647Z,3.60
2019-04-26T14:25:52.072Z,3.15
2019-04-26T14:28:23.843Z,3.87
2019-04-26T14:30:53.777Z,3.50
2019-04-26T14:33:23.466Z,3.80
2019-04-26T14:35:53.213Z,3.80
2019-04-26T14:38:28.111Z,4.53
2019-04-26T14:41:03.713Z,4.62
2019-04-26T14:43:39.908Z,4.87
2019-04-26T14:45:59.922Z,4.87
2019-04-26T14:48:36.081Z,4.70
2019-04-26T14:51:08.127Z,4.72
2019-04-26T14:53:36.273Z,4.60
2019-04-26T14:56:24.725Z,3.77
2019-04-26T14:58:54.694Z,3.62
2019-04-26T15:01:45.498Z,4.15
2019-04-26T15:04:33.416Z,4.33
2019-04-26T15:07:05.583Z,3.92
2019-04-26T15:09:36.618Z,4.17
2019-04-26T15:12:07.639Z,4.08
2019-04-26T15:14:38.188Z,3.55
2019-04-26T15:17:08.101Z,4.00
2019-04-26T15:19:40.282Z,4.12
2019-04-26T15:22:10.822Z,4.80
2019-04-26T15:24:42.192Z,4.67
2019-04-26T15:27:11.987Z,4.25
2019-04-26T15:29:42.307Z,4.00
2019-04-26T15:32:13.118Z,4.42
2019-04-26T15:34:42.991Z,4.03
2019-04-26T15:37:13.741Z,4.20
2019-04-26T15:40:00.510Z,4.30
2019-04-26T15:42:41.032Z,4.28
2019-04-26T15:45:14.889Z,4.67
2019-04-26T15:47:58.393Z,4.55
2019-04-26T15:50:29.759Z,3.72
2019-04-26T15:52:59.459Z,4.03
2019-04-26T15:55:33.879Z,3.67
2019-04-26T15:58:02.629Z,3.20
2019-04-26T16:00:35.570Z,3.47
2019-04-26T16:03:07.424Z,3.33
2019-04-26T16:05:36.880Z,3.40
2019-04-26T16:08:06.775Z,3.10
2019-04-26T16:10:38.537Z,3.37
2019-04-26T16:13:17.952Z,3.65
2019-04-26T16:15:43.580Z,3.42
2019-04-26T16:18:17.010Z,3.70
2019-04-26T16:20:44.466Z,3.05
2019-04-26T16:23:15.031Z,3.20
2019-04-26T16:25:52.521Z,3.17
2019-04-26T16:28:33.372Z,2.70
2019-04-26T16:31:22.542Z,3.08
2019-04-26T16:33:57.191Z,2.83
2019-04-26T16:36:26.900Z,2.62
2019-04-26T16:38:58.056Z,2.60
2019-04-26T16:41:28.942Z,3.15
2019-04-26T16:43:59.084Z,2.25
2019-04-26T16:46:47.945Z,2.05
2019-04-26T16:49:18.192Z,2.47
2019-04-26T16:52:01.006Z,2.70
2019-04-26T16:54:26.666Z,2.92
2019-04-26T16:56:58.908Z,2.52
2019-04-26T16:59:29.914Z,2.95
2019-04-26T17:02:02.411Z,2.12
2019-04-26T17:04:36.180Z,1.98
2019-04-26T17:07:05.109Z,2.00
2019-04-26T17:09:54.877Z,3.40
2019-04-26T17:12:10.498Z,2.42
2019-04-26T17:14:40.572Z,2.30
2019-04-26T17:17:10.856Z,1.98
2019-04-26T17:19:43.756Z,2.25
2019-04-26T17:22:40.033Z,1.95
2019-04-26T17:25:02.825Z,2.35
2019-04-26T17:27:33.033Z,2.33
2019-04-26T17:30:04.475Z,2.15
